Time;durP1;ratioP1;P1;durP2;ratioP2;P2;SDS_P1;SDS_P2;PMS_P1;PMS_P2;Temp;Humidity;BMP_temperature;BMP_pressure;BME280_temperature;BME280_humidity;BME280_pressure;Samples;Min_cycle;Max_cycle;Signal;HPM_P1;HPM_P2
2021/01/19 00:00:41;;;;;;;0.00;0.00;;;5.10;99.90;;;;;;4983204;28;20011;-95
2021/01/19 00:03:07;;;;;;;0.63;0.63;;;5.10;99.90;;;;;;4966450;28;20034;-94
2021/01/19 00:05:33;;;;;;;0.00;0.00;;;5.10;99.90;;;;;;4965247;28;20026;-94
2021/01/19 00:07:58;;;;;;;0.00;0.00;;;5.20;99.90;;;;;;4982628;28;20023;-95
2021/01/19 00:10:24;;;;;;;0.00;0.00;;;5.10;99.90;;;;;;4966759;28;20042;-89
2021/01/19 00:12:50;;;;;;;1.02;0.60;;;5.10;99.90;;;;;;4966352;28;20030;-94
2021/01/19 00:15:15;;;;;;;2.28;0.43;;;5.20;99.90;;;;;;4966791;28;20015;-94
2021/01/19 00:17:41;;;;;;;0.20;0.10;;;5.20;99.90;;;;;;4966796;28;20031;-93
2021/01/19 00:20:09;;;;;;;0.00;0.00;;;5.20;99.90;;;;;;4967036;28;20006;-94
2021/01/19 00:22:35;;;;;;;0.00;0.00;;;5.20;99.90;;;;;;4966437;28;20046;-94
2021/01/19 00:25:01;;;;;;;0.32;0.32;;;5.20;99.90;;;;;;4966653;28;20007;-92
2021/01/19 00:27:27;;;;;;;0.00;0.00;;;5.20;99.90;;;;;;4959059;29;20035;-95
2021/01/19 00:29:52;;;;;;;0.38;0.32;;;5.20;99.90;;;;;;4963107;29;20084;-94
2021/01/19 00:32:18;;;;;;;0.00;0.00;;;5.20;99.90;;;;;;4963023;29;20031;-94
2021/01/19 00:34:44;;;;;;;0.65;0.15;;;5.20;99.90;;;;;;4963344;29;20023;-93
2021/01/19 00:37:10;;;;;;;0.00;0.00;;;5.20;99.90;;;;;;4962978;29;20050;-94
2021/01/19 00:39:35;;;;;;;0.00;0.00;;;5.10;99.90;;;;;;4963372;29;20031;-95
2021/01/19 00:42:01;;;;;;;0.30;0.25;;;5.10;99.90;;;;;;4962783;29;20055;-95
2021/01/19 00:44:27;;;;;;;1.40;1.35;;;5.10;99.90;;;;;;4963222;29;20030;-94
2021/01/19 00:46:52;;;;;;;0.00;0.00;;;5.10;99.90;;;;;;4959180;28;20087;-96
2021/01/19 00:49:18;;;;;;;0.73;0.20;;;5.10;99.90;;;;;;4982505;28;20030;-93
2021/01/19 00:51:44;;;;;;;0.00;0.00;;;5.00;99.90;;;;;;4983018;28;20082;-94
2021/01/19 00:54:11;;;;;;;0.00;0.00;;;5.00;99.90;;;;;;4982279;28;20035;-94
2021/01/19 00:56:41;;;;;;;0.10;0.00;;;5.00;99.90;;;;;;4965545;28;20022;-94
2021/01/19 00:59:10;;;;;;;2.03;0.88;;;5.00;99.90;;;;;;4981940;28;20062;-94
2021/01/19 01:01:44;;;;;;;0.10;0.00;;;5.00;99.90;;;;;;4981988;28;20007;-94
2021/01/19 01:04:09;;;;;;;0.47;0.47;;;5.00;99.90;;;;;;4998359;28;20018;-94
2021/01/19 01:06:35;;;;;;;0.00;0.00;;;5.00;99.90;;;;;;4982252;28;20011;-96
2021/01/19 01:09:01;;;;;;;0.52;0.28;;;5.00;99.90;;;;;;4982214;28;20025;-93
2021/01/19 01:11:26;;;;;;;0.00;0.00;;;5.00;99.90;;;;;;4982083;28;20015;-95
2021/01/19 01:13:52;;;;;;;0.00;0.00;;;5.00;99.90;;;;;;4981852;28;20034;-92
2021/01/19 01:16:20;;;;;;;1.92;1.77;;;5.00;99.90;;;;;;4981959;28;20087;-94
2021/01/19 01:18:50;;;;;;;12.63;3.92;;;5.00;99.90;;;;;;4981840;28;20026;-95
2021/01/19 01:21:15;;;;;;;0.10;0.00;;;4.90;99.90;;;;;;4981919;28;20011;-94
2021/01/19 01:23:42;;;;;;;2.05;0.63;;;4.90;99.90;;;;;;4981661;28;20015;-94
2021/01/19 01:26:08;;;;;;;0.00;0.00;;;5.00;99.90;;;;;;4998076;28;20007;-95
2021/01/19 01:28:34;;;;;;;0.00;0.00;;;5.00;99.90;;;;;;4995284;28;20035;-94
2021/01/19 01:31:00;;;;;;;1.02;0.47;;;4.90;99.90;;;;;;4981975;28;20035;-93
2021/01/19 01:33:25;;;;;;;0.00;0.00;;;4.90;99.90;;;;;;4982050;28;20094;-95
2021/01/19 01:35:51;;;;;;;0.40;0.40;;;4.90;99.90;;;;;;4982021;28;20018;-96
2021/01/19 01:38:16;;;;;;;0.00;0.00;;;5.00;99.90;;;;;;4981787;28;20015;-95
2021/01/19 01:40:42;;;;;;;0.00;0.00;;;4.90;99.90;;;;;;4981545;28;20051;-95
2021/01/19 01:43:14;;;;;;;0.00;0.00;;;4.90;99.90;;;;;;4981403;28;20030;-95
2021/01/19 01:45:41;;;;;;;0.00;0.00;;;4.90;99.90;;;;;;4997868;28;20015;-94
2021/01/19 01:48:09;;;;;;;0.00;0.00;;;4.90;99.90;;;;;;4981762;28;20043;-95
2021/01/19 01:50:37;;;;;;;0.10;0.10;;;4.90;99.90;;;;;;4981910;28;20031;-94
2021/01/19 01:53:02;;;;;;;0.00;0.00;;;4.90;99.90;;;;;;4970180;28;20042;-95
2021/01/19 01:55:28;;;;;;;0.00;0.00;;;4.90;99.90;;;;;;4965671;28;20054;-94
2021/01/19 01:57:55;;;;;;;0.00;0.00;;;4.90;99.90;;;;;;4965824;28;20039;-94
2021/01/19 02:00:21;;;;;;;1.27;1.27;;;4.80;99.90;;;;;;4965548;28;20038;-93
2021/01/19 02:02:50;;;;;;;0.45;0.22;;;4.90;99.90;;;;;;4965581;28;20031;-95
2021/01/19 02:05:18;;;;;;;0.00;0.00;;;4.90;99.90;;;;;;4965483;28;20025;-95
2021/01/19 02:08:10;;;;;;;1.15;0.20;;;4.80;99.90;;;;;;4967060;28;20007;-93
2021/01/19 02:10:59;;;;;;;197.57;16.75;;;4.80;99.90;;;;;;4969217;28;20023;-95
2021/01/19 02:13:52;;;;;;;0.00;0.00;;;4.80;99.90;;;;;;4969008;28;20046;-94
2021/01/19 02:16:27;;;;;;;0.40;0.40;;;4.80;99.90;;;;;;4985187;28;20014;-94
2021/01/19 02:19:11;;;;;;;0.00;0.00;;;4.70;99.90;;;;;;4969244;28;20030;-93
2021/01/19 02:21:36;;;;;;;0.00;0.00;;;4.70;99.90;;;;;;4969434;28;20023;-95
2021/01/19 02:24:11;;;;;;;0.00;0.00;;;4.60;99.90;;;;;;4969071;28;20045;-95
2021/01/19 02:27:13;;;;;;;0.00;0.00;;;4.70;99.90;;;;;;4968959;28;20054;-96
2021/01/19 02:30:09;;;;;;;0.00;0.00;;;4.60;99.90;;;;;;4969021;28;20007;-95
2021/01/19 02:33:08;;;;;;;0.00;0.00;;;4.70;99.90;;;;;;4968500;28;20031;-93
2021/01/19 02:36:07;;;;;;;0.35;0.35;;;4.70;99.90;;;;;;4983807;28;20031;-95
2021/01/19 02:38:38;;;;;;;0.00;0.00;;;4.70;99.90;;;;;;4964512;28;20045;-95
2021/01/19 02:41:05;;;;;;;0.00;0.00;;;4.70;99.90;;;;;;4976831;28;20051;-96
2021/01/19 02:43:31;;;;;;;0.15;0.08;;;4.70;99.90;;;;;;4959586;28;20034;-94
2021/01/19 02:45:57;;;;;;;3.50;1.08;;;4.60;99.90;;;;;;4958769;28;20045;-95
2021/01/19 02:48:25;;;;;;;0.00;0.00;;;4.70;99.90;;;;;;4958860;28;20087;-94
2021/01/19 02:50:51;;;;;;;0.00;0.00;;;4.60;99.90;;;;;;4957507;28;20046;-93
2021/01/19 02:53:18;;;;;;;0.00;0.00;;;4.70;99.90;;;;;;4957021;28;20070;-94
2021/01/19 02:55:45;;;;;;;0.10;0.00;;;4.70;99.90;;;;;;4957169;28;20038;-94
2021/01/19 02:58:30;;;;;;;29.50;4.55;;;4.70;99.90;;;;;;4956951;28;20030;-95
2021/01/19 03:01:07;;;;;;;0.00;0.00;;;4.70;99.90;;;;;;4973173;28;20042;-95
2021/01/19 03:03:35;;;;;;;0.10;0.00;;;4.70;99.90;;;;;;4956710;28;20041;-94
2021/01/19 03:06:06;;;;;;;0.00;0.00;;;4.70;99.90;;;;;;4956824;28;20034;-96
2021/01/19 03:08:37;;;;;;;0.15;0.10;;;4.70;99.90;;;;;;4956629;28;20395;-95
2021/01/19 03:11:04;;;;;;;0.00;0.00;;;4.70;99.90;;;;;;4956658;28;20035;-96
2021/01/19 03:13:30;;;;;;;0.20;0.00;;;4.60;99.90;;;;;;4957781;28;20046;-96
2021/01/19 03:16:12;;;;;;;0.00;0.00;;;4.50;99.90;;;;;;4957064;28;20027;-95
2021/01/19 03:18:39;;;;;;;0.60;0.60;;;4.40;99.90;;;;;;4956405;28;20027;-96
2021/01/19 03:21:07;;;;;;;0.00;0.00;;;4.50;99.90;;;;;;4956562;28;20094;-96
2021/01/19 03:23:34;;;;;;;0.10;0.00;;;4.40;99.90;;;;;;4956555;28;20058;-94
2021/01/19 03:26:00;;;;;;;1.55;0.30;;;4.40;99.90;;;;;;4956130;28;20031;-95
2021/01/19 03:28:25;;;;;;;0.00;0.00;;;4.40;99.90;;;;;;4956363;28;20475;-95
2021/01/19 03:30:52;;;;;;;0.00;0.00;;;4.40;99.90;;;;;;4956060;28;20035;-95
2021/01/19 03:33:18;;;;;;;0.50;0.35;;;4.40;99.90;;;;;;4956030;28;20124;-94
2021/01/19 03:35:44;;;;;;;0.00;0.00;;;4.50;99.90;;;;;;4956074;28;20038;-94
2021/01/19 03:38:11;;;;;;;0.00;0.00;;;4.40;99.90;;;;;;4955980;28;20039;-95
2021/01/19 03:40:37;;;;;;;0.00;0.00;;;4.40;99.90;;;;;;4955637;28;20047;-93
2021/01/19 03:43:03;;;;;;;0.00;0.00;;;4.40;99.90;;;;;;4955655;28;20062;-92
2021/01/19 03:45:29;;;;;;;0.00;0.00;;;4.40;99.90;;;;;;4955720;28;20098;-94
2021/01/19 03:47:55;;;;;;;2.65;0.20;;;4.40;99.90;;;;;;4955953;28;20050;-95
2021/01/19 03:50:24;;;;;;;0.32;0.28;;;4.40;99.90;;;;;;4955849;28;20031;-93
2021/01/19 03:52:50;;;;;;;0.17;0.08;;;4.30;99.90;;;;;;4968607;28;20343;-95
2021/01/19 03:55:16;;;;;;;0.03;0.00;;;4.30;99.90;;;;;;4990920;28;20042;-93
2021/01/19 03:57:42;;;;;;;0.00;0.00;;;4.30;99.90;;;;;;4975527;28;20064;-95
2021/01/19 04:00:10;;;;;;;0.10;0.10;;;4.30;99.90;;;;;;4974863;28;20034;-96
2021/01/19 04:02:38;;;;;;;8.68;0.93;;;4.30;99.90;;;;;;4991541;28;20331;-94
2021/01/19 04:05:05;;;;;;;0.32;0.00;;;4.30;99.90;;;;;;4991776;28;20030;-95
2021/01/19 04:07:41;;;;;;;0.10;0.10;;;4.30;99.90;;;;;;4991076;28;20049;-95
2021/01/19 04:10:12;;;;;;;0.00;0.00;;;4.30;99.90;;;;;;4991038;28;20058;-94
2021/01/19 04:12:38;;;;;;;0.43;0.08;;;4.30;99.90;;;;;;4990214;28;20068;-93
2021/01/19 04:15:05;;;;;;;0.00;0.00;;;4.20;99.90;;;;;;4991168;28;20054;-96
2021/01/19 04:17:31;;;;;;;0.00;0.00;;;4.20;99.90;;;;;;4990700;28;20042;-92
2021/01/19 04:20:00;;;;;;;0.20;0.17;;;4.20;99.90;;;;;;4980422;28;20030;-95
2021/01/19 04:22:26;;;;;;;0.00;0.00;;;4.20;99.90;;;;;;4990413;28;20056;-96
2021/01/19 04:24:53;;;;;;;0.10;0.10;;;4.20;99.90;;;;;;4990281;28;20618;-94
2021/01/19 04:27:20;;;;;;;2.08;0.52;;;4.20;99.90;;;;;;4967601;28;20154;-94
2021/01/19 04:29:46;;;;;;;0.45;0.45;;;4.20;99.90;;;;;;4970009;28;20038;-94
2021/01/19 04:32:12;;;;;;;0.00;0.00;;;4.20;99.90;;;;;;4954686;28;20070;-95
2021/01/19 04:34:38;;;;;;;0.00;0.00;;;4.20;99.90;;;;;;4970804;28;20265;-94
2021/01/19 04:37:03;;;;;;;0.00;0.00;;;4.20;99.90;;;;;;4971022;28;20271;-96
2021/01/19 04:39:29;;;;;;;0.43;0.00;;;4.20;99.90;;;;;;4970937;28;20030;-94
2021/01/19 04:41:55;;;;;;;1.27;1.20;;;4.10;99.90;;;;;;4970294;28;20145;-95
2021/01/19 04:44:22;;;;;;;0.05;0.00;;;4.20;99.90;;;;;;4971203;28;20035;-95
2021/01/19 04:46:48;;;;;;;0.00;0.00;;;4.20;99.90;;;;;;4970976;28;20133;-94
2021/01/19 04:49:16;;;;;;;0.22;0.22;;;4.20;99.90;;;;;;4971410;28;20086;-93
2021/01/19 04:51:46;;;;;;;0.00;0.00;;;4.20;99.90;;;;;;4974728;28;20088;-95
2021/01/19 04:54:17;;;;;;;0.00;0.00;;;4.10;99.90;;;;;;4989994;28;20117;-93
2021/01/19 04:56:55;;;;;;;0.40;0.00;;;4.10;99.90;;;;;;4990052;28;20044;-94
2021/01/19 04:59:23;;;;;;;0.00;0.00;;;4.20;99.90;;;;;;4990286;28;20034;-93
2021/01/19 05:01:55;;;;;;;0.00;0.00;;;4.20;99.90;;;;;;4990695;28;20041;-94
2021/01/19 05:04:27;;;;;;;0.10;0.00;;;4.10;99.90;;;;;;5006470;28;20073;-93
2021/01/19 05:07:28;;;;;;;0.00;0.00;;;4.20;99.90;;;;;;4990348;28;20054;-96
2021/01/19 05:10:11;;;;;;;0.47;0.22;;;4.20;99.90;;;;;;4990230;28;20030;-93
2021/01/19 05:12:43;;;;;;;0.35;0.30;;;4.20;99.90;;;;;;4989841;28;20053;-94
2021/01/19 05:15:11;;;;;;;0.80;0.17;;;4.30;99.90;;;;;;4990116;28;20499;-94
2021/01/19 05:17:38;;;;;;;0.00;0.00;;;4.20;99.90;;;;;;4990044;28;20031;-92
2021/01/19 05:20:05;;;;;;;0.25;0.10;;;4.20;99.90;;;;;;4989705;28;20034;-93
2021/01/19 05:22:32;;;;;;;2.83;1.20;;;4.20;99.90;;;;;;4989682;28;20030;-96
2021/01/19 05:24:58;;;;;;;0.00;0.00;;;4.30;99.90;;;;;;4990262;28;20035;-95
2021/01/19 05:27:23;;;;;;;0.28;0.28;;;4.30;99.90;;;;;;4966831;28;20562;-95
2021/01/19 05:30:01;;;;;;;2.53;0.47;;;4.30;99.90;;;;;;4954506;28;20042;-95
2021/01/19 05:32:41;;;;;;;0.00;0.00;;;4.30;99.90;;;;;;4954497;28;20050;-94
2021/01/19 05:35:17;;;;;;;;;;;4.40;99.90;;;;;;4955206;28;20094;-92
2021/01/19 05:38:03;;;;;;;0.00;0.00;;;4.30;99.90;;;;;;4970815;28;19974;-95
2021/01/19 05:40:29;;;;;;;0.00;0.00;;;4.30;99.90;;;;;;4985676;28;20043;-94
2021/01/19 05:42:55;;;;;;;0.00;0.00;;;4.30;99.90;;;;;;4957763;28;20034;-94
2021/01/19 05:45:20;;;;;;;3.10;0.10;;;4.30;99.90;;;;;;4957562;28;20058;-95
2021/01/19 05:47:55;;;;;;;0.00;0.00;;;4.30;99.90;;;;;;4974826;28;20035;-96
2021/01/19 05:50:29;;;;;;;0.00;0.00;;;4.30;99.90;;;;;;4958949;29;20098;-96
2021/01/19 05:52:57;;;;;;;0.00;0.00;;;4.30;99.90;;;;;;4967775;28;20045;-96
2021/01/19 05:55:29;;;;;;;0.22;0.10;;;4.30;99.90;;;;;;4995606;28;20041;-96
2021/01/19 05:57:55;;;;;;;0.00;0.00;;;4.40;99.90;;;;;;4997611;28;20034;-96
2021/01/19 06:03:17;;;;;;;0.05;0.00;;;4.40;99.90;;;;;;4994199;28;20062;-96
2021/01/19 06:05:45;;;;;;;0.00;0.00;;;4.40;99.90;;;;;;4977194;28;20027;-96
2021/01/19 06:08:11;;;;;;;0.05;0.00;;;4.40;99.90;;;;;;4962700;28;20039;-93
2021/01/19 06:10:44;;;;;;;0.30;0.30;;;4.40;99.90;;;;;;4959339;28;20034;-95
2021/01/19 06:13:17;;;;;;;0.00;0.00;;;4.40;99.90;;;;;;4976045;28;20046;-96
2021/01/19 06:15:43;;;;;;;0.45;0.45;;;4.50;99.90;;;;;;4960234;28;20023;-96
2021/01/19 06:18:08;;;;;;;0.00;0.00;;;4.50;99.90;;;;;;4961159;28;20035;-96
2021/01/19 06:20:45;;;;;;;0.00;0.00;;;4.50;99.90;;;;;;4963714;28;20046;-96
2021/01/19 06:23:14;;;;;;;0.00;0.00;;;4.50;99.90;;;;;;4965333;28;20027;-94
2021/01/19 06:25:43;;;;;;;0.20;0.20;;;4.50;99.90;;;;;;4956949;28;20091;-94
2021/01/19 06:28:13;;;;;;;0.00;0.00;;;4.50;99.90;;;;;;4957038;28;20035;-95
2021/01/19 06:30:38;;;;;;;0.55;0.15;;;4.60;99.90;;;;;;4973722;28;20113;-94
2021/01/19 06:33:05;;;;;;;0.10;0.00;;;4.60;99.90;;;;;;4958035;28;20105;-93
2021/01/19 06:35:40;;;;;;;0.00;0.00;;;4.60;99.90;;;;;;4957946;28;20082;-95
2021/01/19 06:38:07;;;;;;;0.35;0.20;;;4.60;99.90;;;;;;4958562;28;20038;-93
2021/01/19 06:40:36;;;;;;;0.05;0.00;;;4.60;99.90;;;;;;4958734;28;20027;-95
2021/01/19 06:43:04;;;;;;;1.73;1.63;;;4.70;99.90;;;;;;4958280;28;20034;-95
2021/01/19 06:45:32;;;;;;;0.00;0.00;;;4.70;99.90;;;;;;4958139;28;20035;-94
2021/01/19 06:48:02;;;;;;;0.00;0.00;;;4.70;99.90;;;;;;4958419;28;20042;-95
2021/01/19 06:50:35;;;;;;;0.00;0.00;;;4.70;99.90;;;;;;4973760;28;20463;-95
2021/01/19 06:53:21;;;;;;;0.13;0.08;;;4.70;99.90;;;;;;4987404;28;20073;-95
2021/01/19 06:55:58;;;;;;;2.80;2.60;;;4.70;99.90;;;;;;4976974;28;20098;-95
2021/01/19 06:58:44;;;;;;;0.10;0.00;;;4.80;99.90;;;;;;4993182;28;20088;-94
2021/01/19 07:01:15;;;;;;;0.00;0.00;;;4.80;99.90;;;;;;4992385;28;20045;-95
2021/01/19 07:03:41;;;;;;;;;;;4.80;99.90;;;;;;4976509;28;20042;-95
2021/01/19 07:06:12;;;;;;;0.00;0.00;;;4.80;99.90;;;;;;4976144;28;19980;-94
2021/01/19 07:09:11;;;;;;;0.00;0.00;;;4.80;99.90;;;;;;4992856;28;20098;-94
2021/01/19 07:11:37;;;;;;;0.03;0.00;;;4.80;99.90;;;;;;4976334;28;20117;-95
2021/01/19 07:14:14;;;;;;;6.45;3.75;;;4.80;99.90;;;;;;5007973;28;20118;-96
2021/01/19 07:16:56;;;;;;;0.00;0.00;;;4.80;99.90;;;;;;4975889;28;20038;-92
2021/01/19 07:19:51;;;;;;;0.25;0.08;;;4.90;99.90;;;;;;4976136;28;20030;-94
2021/01/19 07:22:51;;;;;;;0.00;0.00;;;4.90;99.90;;;;;;4978763;28;20085;-95
2021/01/19 07:25:17;;;;;;;0.30;0.10;;;4.90;99.90;;;;;;4981091;28;20073;-94
2021/01/19 07:27:45;;;;;;;0.00;0.00;;;4.90;99.90;;;;;;4965486;28;20027;-94
2021/01/19 07:30:12;;;;;;;0.00;0.00;;;4.90;99.90;;;;;;4971925;28;20035;-95
2021/01/19 07:32:40;;;;;;;0.10;0.10;;;5.00;99.90;;;;;;4988907;28;20043;-95
2021/01/19 07:35:07;;;;;;;0.00;0.00;;;5.00;99.90;;;;;;4966658;28;20046;-96
2021/01/19 07:37:36;;;;;;;0.00;0.00;;;5.00;99.90;;;;;;4963791;28;20026;-93
2021/01/19 07:40:16;;;;;;;0.00;0.00;;;5.00;99.90;;;;;;4952900;28;20030;-95
2021/01/19 07:43:12;;;;;;;0.00;0.00;;;5.00;99.90;;;;;;4957609;28;20042;-94
2021/01/19 07:45:48;;;;;;;0.10;0.00;;;5.00;99.90;;;;;;4898766;29;20076;-93
2021/01/19 07:48:13;;;;;;;0.55;0.00;;;5.10;99.90;;;;;;4913511;29;20076;-94
2021/01/19 07:50:42;;;;;;;0.00;0.00;;;5.10;99.90;;;;;;4898253;29;20060;-93
2021/01/19 07:53:09;;;;;;;0.00;0.00;;;5.10;99.90;;;;;;4897931;29;20048;-95
2021/01/19 07:55:42;;;;;;;0.80;0.63;;;5.10;99.90;;;;;;4929131;29;20032;-92
2021/01/19 07:58:16;;;;;;;0.22;0.00;;;5.10;99.90;;;;;;4928971;29;20040;-92
2021/01/19 08:00:45;;;;;;;0.95;0.45;;;5.20;99.90;;;;;;4929545;29;20032;-96
2021/01/19 08:03:11;;;;;;;0.98;0.10;;;5.20;99.90;;;;;;4930836;29;20528;-95
2021/01/19 08:05:39;;;;;;;0.10;0.00;;;5.20;99.90;;;;;;4897945;29;20032;-95
2021/01/19 08:08:16;;;;;;;0.00;0.00;;;5.30;99.90;;;;;;4931275;29;20099;-96
2021/01/19 08:10:53;;;;;;;0.00;0.00;;;5.20;99.90;;;;;;4930447;29;20048;-96
2021/01/19 08:13:21;;;;;;;0.00;0.00;;;5.30;99.90;;;;;;4930116;29;20040;-96
2021/01/19 08:16:00;;;;;;;0.00;0.00;;;5.20;99.90;;;;;;4914743;29;20035;-95
2021/01/19 08:18:44;;;;;;;0.00;0.00;;;5.30;99.90;;;;;;4921584;29;20047;-95
2021/01/19 08:21:11;;;;;;;0.00;0.00;;;5.30;99.90;;;;;;4908860;29;20067;-96
2021/01/19 08:23:41;;;;;;;0.00;0.00;;;5.30;99.90;;;;;;4972900;28;20046;-96
2021/01/19 08:26:10;;;;;;;0.00;0.00;;;5.30;99.90;;;;;;4957189;28;20035;-95
2021/01/19 08:28:37;;;;;;;0.00;0.00;;;5.30;99.90;;;;;;4972121;28;20026;-96
2021/01/19 08:31:13;;;;;;;0.00;0.00;;;5.40;99.90;;;;;;4958863;28;20038;-96
2021/01/19 08:33:40;;;;;;;0.00;0.00;;;5.40;99.90;;;;;;4961814;28;20060;-96
2021/01/19 08:36:09;;;;;;;0.10;0.10;;;5.40;99.90;;;;;;4977740;28;20121;-96
2021/01/19 08:38:51;;;;;;;0.00;0.00;;;5.40;99.90;;;;;;4960722;28;20124;-95
2021/01/19 08:41:20;;;;;;;0.00;0.00;;;5.40;99.90;;;;;;4976269;28;20031;-96
2021/01/19 08:44:17;;;;;;;0.00;0.00;;;5.50;99.90;;;;;;4960609;28;20033;-96
2021/01/19 08:46:44;;;;;;;0.00;0.00;;;5.50;99.90;;;;;;4957574;28;20103;-96
2021/01/19 08:49:16;;;;;;;0.00;0.00;;;5.50;99.90;;;;;;4959507;28;20300;-96
2021/01/19 08:51:46;;;;;;;0.20;0.08;;;5.60;99.90;;;;;;4976928;28;20123;-94
2021/01/19 08:54:30;;;;;;;0.00;0.00;;;5.60;99.90;;;;;;4993208;28;20471;-95
2021/01/19 08:56:56;;;;;;;0.20;0.20;;;5.70;99.90;;;;;;4978451;28;20026;-95
2021/01/19 08:59:24;;;;;;;0.25;0.08;;;5.70;99.90;;;;;;4991537;28;20034;-95
2021/01/19 09:01:54;;;;;;;0.00;0.00;;;5.70;99.90;;;;;;4974136;28;20243;-96
2021/01/19 09:04:29;;;;;;;0.00;0.00;;;5.70;99.90;;;;;;4974641;28;20026;-95
2021/01/19 09:07:07;;;;;;;0.00;0.00;;;5.70;99.90;;;;;;4991171;28;20045;-96
2021/01/19 09:09:46;;;;;;;0.00;0.00;;;5.80;99.90;;;;;;4978048;28;20026;-96
2021/01/19 09:12:16;;;;;;;0.10;0.00;;;5.80;99.90;;;;;;4978994;28;20042;-94
2021/01/19 09:14:49;;;;;;;0.00;0.00;;;5.80;99.90;;;;;;4993423;28;20113;-96
2021/01/19 09:17:25;;;;;;;0.00;0.00;;;5.90;99.90;;;;;;4975237;28;20034;-94
2021/01/19 09:20:05;;;;;;;0.00;0.00;;;6.00;99.90;;;;;;4975196;28;20057;-96
2021/01/19 09:22:32;;;;;;;0.00;0.00;;;6.00;99.90;;;;;;4977495;28;20045;-95
2021/01/19 09:24:58;;;;;;;1.55;1.55;;;6.00;99.90;;;;;;4991892;28;20068;-95
2021/01/19 09:27:24;;;;;;;0.00;0.00;;;6.10;99.90;;;;;;4969186;28;20066;-96
2021/01/19 09:30:01;;;;;;;0.00;0.00;;;6.20;99.90;;;;;;4989196;28;20035;-95
2021/01/19 09:32:30;;;;;;;0.00;0.00;;;6.10;99.90;;;;;;4988640;28;20042;-95
2021/01/19 09:35:04;;;;;;;0.00;0.00;;;6.20;99.90;;;;;;4972851;28;20015;-96
2021/01/19 09:37:32;;;;;;;0.00;0.00;;;6.20;99.90;;;;;;4989260;28;20058;-96
2021/01/19 09:39:58;;;;;;;0.00;0.00;;;6.30;99.90;;;;;;4973568;28;20051;-96
2021/01/19 09:45:25;;;;;;;0.10;0.00;;;6.30;99.90;;;;;;4931208;29;20084;-96
2021/01/19 09:47:57;;;;;;;0.00;0.00;;;6.40;99.90;;;;;;4915525;29;20044;-95
2021/01/19 09:50:25;;;;;;;0.70;0.28;;;6.40;99.90;;;;;;4913346;29;20112;-92
2021/01/19 09:52:51;;;;;;;0.00;0.00;;;6.40;99.90;;;;;;4911218;29;20068;-96
2021/01/19 09:55:29;;;;;;;0.00;0.00;;;6.40;99.90;;;;;;4910396;29;20061;-95
2021/01/19 09:58:06;;;;;;;0.00;0.00;;;6.50;99.90;;;;;;4895022;29;20052;-95
2021/01/19 10:00:34;;;;;;;0.00;0.00;;;6.50;99.90;;;;;;4910415;29;20100;-96
2021/01/19 10:03:10;;;;;;;0.00;0.00;;;6.60;99.90;;;;;;4912113;29;20091;-96
2021/01/19 10:05:36;;;;;;;0.00;0.00;;;6.60;99.90;;;;;;4911436;29;20157;-96
2021/01/19 10:08:06;;;;;;;0.00;0.00;;;6.70;99.90;;;;;;4911980;29;20059;-95
2021/01/19 10:10:46;;;;;;;0.10;0.00;;;6.70;99.90;;;;;;4911533;29;20040;-95
2021/01/19 10:13:34;;;;;;;0.00;0.00;;;6.70;99.90;;;;;;4895871;29;20064;-96
2021/01/19 10:16:17;;;;;;;0.00;0.00;;;6.70;99.90;;;;;;4911069;29;20103;-96
2021/01/19 10:18:50;;;;;;;0.00;0.00;;;6.70;99.90;;;;;;4894790;29;20032;-96
2021/01/19 10:21:31;;;;;;;0.00;0.00;;;6.70;99.90;;;;;;4914713;29;20024;-96
2021/01/19 10:24:03;;;;;;;0.00;0.00;;;6.80;99.90;;;;;;4969428;29;20031;-94
2021/01/19 10:26:33;;;;;;;0.00;0.00;;;6.80;99.90;;;;;;4968325;29;20039;-96
2021/01/19 10:29:03;;;;;;;0.00;0.00;;;6.90;99.90;;;;;;4953758;29;20031;-96
2021/01/19 10:31:46;;;;;;;0.00;0.00;;;6.90;99.90;;;;;;4956281;29;20039;-96
2021/01/19 10:34:14;;;;;;;0.00;0.00;;;6.90;99.90;;;;;;4955928;29;20043;-95
2021/01/19 10:36:51;;;;;;;0.00;0.00;;;7.00;99.90;;;;;;4955317;29;20035;-96
2021/01/19 10:39:30;;;;;;;0.00;0.00;;;7.00;99.90;;;;;;4972466;29;20035;-96
2021/01/19 10:42:33;;;;;;;0.00;0.00;;;7.00;99.90;;;;;;4959539;29;20043;-96
2021/01/19 10:45:34;;;;;;;0.00;0.00;;;7.00;99.90;;;;;;4903772;29;20037;-95
2021/01/19 10:48:32;;;;;;;0.00;0.00;;;7.10;99.90;;;;;;4914618;29;20044;-96
2021/01/19 10:51:07;;;;;;;0.00;0.00;;;7.10;99.90;;;;;;4913921;29;20045;-96
2021/01/19 10:53:34;;;;;;;0.00;0.00;;;7.20;99.90;;;;;;4915421;29;20112;-96
2021/01/19 10:56:13;;;;;;;0.03;0.00;;;7.20;99.90;;;;;;4931925;29;20040;-95
2021/01/19 10:58:39;;;;;;;0.00;0.00;;;7.20;99.90;;;;;;4916821;29;20047;-95
2021/01/19 11:01:05;;;;;;;0.00;0.00;;;7.20;99.90;;;;;;4930920;29;20284;-96
2021/01/19 11:03:31;;;;;;;0.00;0.00;;;7.30;99.90;;;;;;4932105;29;20055;-96
2021/01/19 11:05:56;;;;;;;0.00;0.00;;;7.30;99.90;;;;;;4930843;29;20032;-96
2021/01/19 11:08:25;;;;;;;0.00;0.00;;;7.30;99.90;;;;;;4915118;29;20040;-96
2021/01/19 11:10:52;;;;;;;0.00;0.00;;;7.40;99.90;;;;;;4930361;29;20032;-96
2021/01/19 11:13:18;;;;;;;0.03;0.00;;;7.30;99.90;;;;;;4931040;29;20206;-95
2021/01/19 11:15:43;;;;;;;0.43;0.35;;;7.40;99.90;;;;;;4930837;29;20047;-96
2021/01/19 11:18:10;;;;;;;0.00;0.00;;;7.40;99.90;;;;;;4915617;29;20050;-96
2021/01/19 11:20:39;;;;;;;0.00;0.00;;;7.40;99.90;;;;;;4915965;29;20100;-96
2021/01/19 11:23:05;;;;;;;0.00;0.00;;;7.50;99.90;;;;;;4981061;28;20559;-95
2021/01/19 11:25:34;;;;;;;0.00;0.00;;;7.60;99.90;;;;;;4992536;28;20106;-96
2021/01/19 11:28:09;;;;;;;0.00;0.00;;;7.60;99.90;;;;;;4979304;28;20509;-96
2021/01/19 11:30:35;;;;;;;0.00;0.00;;;7.60;99.90;;;;;;4975891;28;20031;-95
2021/01/19 11:33:01;;;;;;;0.00;0.00;;;7.70;99.90;;;;;;4976426;28;20053;-96
2021/01/19 11:35:27;;;;;;;0.00;0.00;;;7.70;99.90;;;;;;4991552;28;20022;-95
2021/01/19 11:37:55;;;;;;;0.00;0.00;;;7.80;99.90;;;;;;4975341;28;20105;-95
2021/01/19 11:40:21;;;;;;;0.00;0.00;;;7.80;99.90;;;;;;4974791;28;20038;-94
2021/01/19 11:43:07;;;;;;;0.00;0.00;;;7.80;99.90;;;;;;4975221;28;20062;-95
2021/01/19 11:45:32;;;;;;;0.10;0.00;;;7.90;99.90;;;;;;4932919;29;20047;-95
2021/01/19 11:48:09;;;;;;;0.00;0.00;;;8.00;99.90;;;;;;4933265;29;20072;-96
2021/01/19 11:50:35;;;;;;;0.00;0.00;;;8.10;99.90;;;;;;4949325;29;20173;-94
2021/01/19 11:53:01;;;;;;;0.00;0.00;;;8.10;99.90;;;;;;4918117;29;20038;-96
2021/01/19 11:55:30;;;;;;;0.00;0.00;;;8.10;99.90;;;;;;4913365;29;20068;-95
2021/01/19 11:57:56;;;;;;;0.17;0.10;;;8.30;99.90;;;;;;4913662;29;20135;-93
2021/01/19 12:00:30;;;;;;;0.00;0.00;;;8.40;99.90;;;;;;4913454;29;20472;-95
2021/01/19 12:02:59;;;;;;;0.10;0.10;;;8.40;99.90;;;;;;4915197;29;20085;-96
2021/01/19 12:05:41;;;;;;;0.25;0.00;;;8.50;99.90;;;;;;4913339;29;20031;-96
2021/01/19 12:08:13;;;;;;;0.00;0.00;;;8.50;99.90;;;;;;4913649;29;20088;-96
2021/01/19 12:10:44;;;;;;;0.00;0.00;;;8.60;99.90;;;;;;4929289;29;20040;-94
2021/01/19 12:13:12;;;;;;;0.00;0.00;;;8.60;99.90;;;;;;4928667;29;20047;-96
2021/01/19 12:15:42;;;;;;;0.00;0.00;;;8.70;99.90;;;;;;4911714;29;20044;-92
2021/01/19 12:18:11;;;;;;;0.00;0.00;;;8.70;99.90;;;;;;4913425;29;20044;-96
2021/01/19 12:20:37;;;;;;;0.00;0.00;;;8.70;99.90;;;;;;4912960;29;20024;-95
2021/01/19 12:23:14;;;;;;;0.15;0.10;;;8.70;99.90;;;;;;4953415;28;20055;-93
2021/01/19 12:25:39;;;;;;;0.32;0.08;;;8.70;99.90;;;;;;4969830;28;20027;-93
2021/01/19 12:28:05;;;;;;;0.10;0.00;;;8.70;99.90;;;;;;4997303;28;20058;-92
2021/01/19 12:30:37;;;;;;;0.00;0.00;;;8.80;99.90;;;;;;4971077;28;20034;-96
2021/01/19 12:33:03;;;;;;;0.13;0.13;;;8.80;99.90;;;;;;4971380;28;20023;-94
2021/01/19 12:35:31;;;;;;;0.30;0.30;;;8.80;99.90;;;;;;4971504;28;20038;-94
2021/01/19 12:38:14;;;;;;;0.40;0.20;;;8.80;99.90;;;;;;4970460;28;20031;-94
2021/01/19 12:40:42;;;;;;;0.00;0.00;;;8.80;99.90;;;;;;4970785;28;20034;-93
2021/01/19 12:43:08;;;;;;;0.00;0.00;;;8.80;99.90;;;;;;4970822;28;20093;-94
2021/01/19 12:45:41;;;;;;;0.00;0.00;;;8.80;99.90;;;;;;4970149;28;20041;-95
2021/01/19 12:48:12;;;;;;;0.00;0.00;;;8.80;99.90;;;;;;5002868;28;20106;-92
2021/01/19 12:50:38;;;;;;;2.67;0.52;;;8.80;99.90;;;;;;4969662;28;20094;-93
2021/01/19 12:53:05;;;;;;;0.00;0.00;;;8.80;99.90;;;;;;4957032;29;20127;-95
2021/01/19 12:55:32;;;;;;;0.40;0.40;;;8.80;99.90;;;;;;4951646;29;20031;-91
2021/01/19 12:58:04;;;;;;;0.00;0.00;;;8.90;99.90;;;;;;4951442;29;20035;-96
2021/01/19 13:00:30;;;;;;;0.10;0.10;;;8.90;99.90;;;;;;4967517;29;20035;-91
2021/01/19 13:02:55;;;;;;;0.75;0.15;;;8.80;99.90;;;;;;4950969;29;20051;-93
2021/01/19 13:05:28;;;;;;;0.00;0.00;;;8.90;99.90;;;;;;4950464;29;20058;-96
2021/01/19 13:07:57;;;;;;;0.00;0.00;;;8.90;99.90;;;;;;4951323;29;20043;-92
2021/01/19 13:10:31;;;;;;;0.00;0.00;;;8.90;99.90;;;;;;4950803;29;20031;-95
2021/01/19 13:12:59;;;;;;;0.60;0.05;;;8.90;99.90;;;;;;4966515;29;20035;-93
2021/01/19 13:15:31;;;;;;;0.00;0.00;;;8.90;99.90;;;;;;4951097;29;20027;-94
2021/01/19 13:18:00;;;;;;;1.55;0.73;;;8.90;99.90;;;;;;4951616;29;20110;-93
2021/01/19 13:20:25;;;;;;;0.00;0.00;;;9.00;99.90;;;;;;4950692;29;20024;-93
2021/01/19 13:22:51;;;;;;;0.63;0.55;;;9.00;99.90;;;;;;4950687;29;20038;-94